NORTHEAST SUFFOLK  -  Special Weather Statement Special Weather Statement        NORTHERN NASSAU  -  Special Weather Statement Special Weather Statement        NORTHWEST SUFFOLK  -  Special Weather Statement Special Weather Statement        SOUTHEAST SUFFOLK  -  Special Weather Statement Special Weather Statement        SOUTHERN NASSAU  -  Special Weather Statement Special Weather Statement        SOUTHWEST SUFFOLK  -  Special Weather Statement Special Weather Statement      

Active alerts

Northern Nassau
  Details for Northern Nassau Special Weather Statement
Southern Nassau
  Details for Southern Nassau Special Weather Statement
Northwest Suffolk
  Details for Northwest Suffolk Special Weather Statement
Southwest Suffolk
  Details for Southwest Suffolk Special Weather Statement
Northeast Suffolk
  Details for Northeast Suffolk Special Weather Statement
Southeast Suffolk
  Details for Southeast Suffolk Special Weather Statement


WXM80 ListenWXM80 Stop

You find our weather info also at:

UK Metoffice

WeatherCloud

Weather Underground

Northeastern Weather Network

AWEKAS

Citizen Weather Observer Program (CWOP)

HAMweather, WeatherForYou, PWS Weather


Weather Underground History page Text

Daily Summary for February 8, 2018 Units:  Both    English   Metric
« Previous Day
Next Day »
Daily Weekly Monthly Yearly Custom
  High: Low: Average:
Temperature: 35.1 °F /  1.7 °C 24.5 °F /  -4.2 °C 30.5 °F /  -0.8 °C
Dew Point: 32.7 °F /  0.4 °C 17.4 °F /  -8.1 °C 21.4 °F /  -5.9 °C
Humidity: 91 % 55 % 69 %
Wind Speed: 10.1 mph /  16.3 km/h - 3.9 mph /  6.3 km/h
Wind Gust: 17.3 mph /  27.8 km/h - -
Wind:- - West
Pressure: 30.22 in /  1023.2 hPa 29.81 in /  1009.4 hPa -
Precipitation: 0.00 in /  0 mm    
Historical Graphs
 
 
Tabular Data for February 8, 2018
Time Temperature Dew Point Pressure Wind Wind Speed Wind Gust Humidity Rainfall Rate (Hourly)
00:01 35.1 °F /  1.7 °C 32.7 °F /  0.4 °C 29.81 in /  1009.4 hPa NNW 5.6 mph /  9 km/h 12.7 mph /  20.4 km/h 91 % 0.00 in /  0 mm
00:06 34.9 °F /  1.6 °C 32.5 °F /  0.3 °C 29.81 in /  1009.4 hPa North 4.1 mph /  6.6 km/h 9.2 mph /  14.8 km/h 91 % 0.00 in /  0 mm
00:11 34.7 °F /  1.5 °C 32.1 °F /  0.1 °C 29.82 in /  1009.7 hPa NNW 9.6 mph /  15.4 km/h 15.0 mph /  24.1 km/h 90 % 0.00 in /  0 mm
00:16 34.4 °F /  1.3 °C 31.8 °F /  -0.1 °C 29.82 in /  1009.7 hPa NNW 5.0 mph /  8 km/h 12.7 mph /  20.4 km/h 90 % 0.00 in /  0 mm
00:22 34.3 °F /  1.3 °C 31.4 °F /  -0.3 °C 29.83 in /  1010 hPa NNW 6.1 mph /  9.8 km/h 10.4 mph /  16.7 km/h 89 % 0.00 in /  0 mm
00:27 34.1 °F /  1.2 °C 31.2 °F /  -0.4 °C 29.83 in /  1010 hPa NNW 5.1 mph /  8.2 km/h 8.1 mph /  13 km/h 89 % 0.00 in /  0 mm
00:32 34.0 °F /  1.1 °C 31.1 °F /  -0.5 °C 29.83 in /  1010 hPa NNE 5.8 mph /  9.3 km/h 9.2 mph /  14.8 km/h 89 % 0.00 in /  0 mm
00:37 33.9 °F /  1.1 °C 31.0 °F /  -0.6 °C 29.84 in /  1010.4 hPa NNW 5.6 mph /  9 km/h 9.2 mph /  14.8 km/h 89 % 0.00 in /  0 mm
00:42 33.7 °F /  0.9 °C 30.5 °F /  -0.8 °C 29.85 in /  1010.7 hPa North 6.1 mph /  9.8 km/h 11.5 mph /  18.5 km/h 88 % 0.00 in /  0 mm
00:47 33.6 °F /  0.9 °C 30.4 °F /  -0.9 °C 29.85 in /  1010.7 hPa North 4.9 mph /  7.9 km/h 10.0 mph /  16.1 km/h 88 % 0.00 in /  0 mm
00:52 33.5 °F /  0.8 °C 30.3 °F /  -0.9 °C 29.86 in /  1011.1 hPa North 4.2 mph /  6.8 km/h 8.1 mph /  13 km/h 88 % 0.00 in /  0 mm
00:57 33.4 °F /  0.8 °C 29.9 °F /  -1.2 °C 29.86 in /  1011.1 hPa North 6.5 mph /  10.5 km/h 10.4 mph /  16.7 km/h 87 % 0.00 in /  0 mm
01:02 33.2 °F /  0.7 °C 29.8 °F /  -1.2 °C 29.86 in /  1011.1 hPa NNW 3.6 mph /  5.8 km/h 6.0 mph /  9.7 km/h 87 % 0.00 in /  0 mm
01:07 33.2 °F /  0.7 °C 29.8 °F /  -1.2 °C 29.87 in /  1011.4 hPa NW 3.0 mph /  4.8 km/h 8.1 mph /  13 km/h 87 % 0.00 in /  0 mm
01:12 33.1 °F /  0.6 °C 29.7 °F /  -1.3 °C 29.87 in /  1011.4 hPa WNW 3.4 mph /  5.5 km/h 11.5 mph /  18.5 km/h 87 % 0.00 in /  0 mm
01:17 33.0 °F /  0.6 °C 29.6 °F /  -1.3 °C 29.87 in /  1011.4 hPa NNW 5.6 mph /  9 km/h 10.4 mph /  16.7 km/h 87 % 0.00 in /  0 mm
01:22 33.0 °F /  0.6 °C 29.3 °F /  -1.5 °C 29.87 in /  1011.4 hPa NNW 5.8 mph /  9.3 km/h 11.5 mph /  18.5 km/h 86 % 0.00 in /  0 mm
01:27 32.9 °F /  0.5 °C 29.2 °F /  -1.6 °C 29.88 in /  1011.7 hPa NNW 5.8 mph /  9.3 km/h 10.4 mph /  16.7 km/h 86 % 0.00 in /  0 mm
01:32 32.8 °F /  0.4 °C 29.1 °F /  -1.6 °C 29.88 in /  1011.7 hPa NNW 5.7 mph /  9.2 km/h 12.7 mph /  20.4 km/h 86 % 0.00 in /  0 mm
01:37 32.8 °F /  0.4 °C 29.1 °F /  -1.6 °C 29.88 in /  1011.7 hPa North 4.6 mph /  7.4 km/h 9.2 mph /  14.8 km/h 86 % 0.00 in /  0 mm
01:42 32.8 °F /  0.4 °C 29.1 °F /  -1.6 °C 29.88 in /  1011.7 hPa North 5.8 mph /  9.3 km/h 9.2 mph /  14.8 km/h 86 % 0.00 in /  0 mm
01:47 32.8 °F /  0.4 °C 28.8 °F /  -1.8 °C 29.89 in /  1012.1 hPa NW 8.6 mph /  13.8 km/h 8.6 mph /  13.8 km/h 85 % 0.00 in /  0 mm
01:52 32.7 °F /  0.4 °C 28.7 °F /  -1.8 °C 29.89 in /  1012.1 hPa NNW 9.4 mph /  15.1 km/h 13.8 mph /  22.2 km/h 85 % 0.00 in /  0 mm
01:58 32.6 °F /  0.3 °C 28.3 °F /  -2.1 °C 29.89 in /  1012.1 hPa NW 4.3 mph /  6.9 km/h 8.0 mph /  12.9 km/h 84 % 0.00 in /  0 mm
02:03 32.6 °F /  0.3 °C 28.3 °F /  -2.1 °C 29.89 in /  1012.1 hPa NW 6.9 mph /  11.1 km/h 11.5 mph /  18.5 km/h 84 % 0.00 in /  0 mm
02:08 32.5 °F /  0.3 °C 27.9 °F /  -2.3 °C 29.89 in /  1012.1 hPa NNW 5.5 mph /  8.9 km/h 11.5 mph /  18.5 km/h 83 % 0.00 in /  0 mm
02:13 32.5 °F /  0.3 °C 27.9 °F /  -2.3 °C 29.90 in /  1012.4 hPa NNW 5.9 mph /  9.5 km/h 10.0 mph /  16.1 km/h 83 % 0.00 in /  0 mm
02:18 32.5 °F /  0.3 °C 27.6 °F /  -2.4 °C 29.90 in /  1012.4 hPa NNE 4.0 mph /  6.4 km/h 8.1 mph /  13 km/h 82 % 0.00 in /  0 mm
02:23 32.4 °F /  0.2 °C 27.5 °F /  -2.5 °C 29.90 in /  1012.4 hPa NNW 5.8 mph /  9.3 km/h 9.2 mph /  14.8 km/h 82 % 0.00 in /  0 mm
02:28 32.3 °F /  0.2 °C 27.1 °F /  -2.7 °C 29.90 in /  1012.4 hPa NNW 4.2 mph /  6.8 km/h 5.8 mph /  9.3 km/h 81 % 0.00 in /  0 mm
02:33 32.3 °F /  0.2 °C 27.4 °F /  -2.6 °C 29.90 in /  1012.4 hPa NNW 2.9 mph /  4.7 km/h 9.2 mph /  14.8 km/h 82 % 0.00 in /  0 mm
02:38 32.3 °F /  0.2 °C 27.4 °F /  -2.6 °C 29.90 in /  1012.4 hPa NW 3.6 mph /  5.8 km/h 8.1 mph /  13 km/h 82 % 0.00 in /  0 mm
02:43 32.3 °F /  0.2 °C 27.4 °F /  -2.6 °C 29.90 in /  1012.4 hPa North 3.8 mph /  6.1 km/h 6.9 mph /  11.1 km/h 82 % 0.00 in /  0 mm
02:48 32.1 °F /  0.1 °C 27.5 °F /  -2.5 °C 29.90 in /  1012.4 hPa NNE 3.3 mph /  5.3 km/h 6.0 mph /  9.7 km/h 83 % 0.00 in /  0 mm
02:53 32.1 °F /  0.1 °C 27.5 °F /  -2.5 °C 29.90 in /  1012.4 hPa NW 4.6 mph /  7.4 km/h 9.2 mph /  14.8 km/h 83 % 0.00 in /  0 mm
02:58 32.1 °F /  0.1 °C 27.5 °F /  -2.5 °C 29.90 in /  1012.4 hPa North 4.0 mph /  6.4 km/h 5.0 mph /  8 km/h 83 % 0.00 in /  0 mm
03:03 32.1 °F /  0.1 °C 27.5 °F /  -2.5 °C 29.90 in /  1012.4 hPa NNW 5.1 mph /  8.2 km/h 9.0 mph /  14.5 km/h 83 % 0.00 in /  0 mm
03:08 32.0 °F /  0 °C 27.4 °F /  -2.6 °C 29.90 in /  1012.4 hPa NNW 3.3 mph /  5.3 km/h 5.8 mph /  9.3 km/h 83 % 0.00 in /  0 mm
03:13 32.0 °F /  0 °C 27.1 °F /  -2.7 °C 29.91 in /  1012.8 hPa NNW 4.6 mph /  7.4 km/h 10.4 mph /  16.7 km/h 82 % 0.00 in /  0 mm
03:18 31.9 °F /  -0.1 °C 26.7 °F /  -2.9 °C 29.91 in /  1012.8 hPa WNW 5.3 mph /  8.5 km/h 8.1 mph /  13 km/h 81 % 0.00 in /  0 mm
03:23 31.9 °F /  -0.1 °C 26.4 °F /  -3.1 °C 29.91 in /  1012.8 hPa North 3.6 mph /  5.8 km/h 5.8 mph /  9.3 km/h 80 % 0.00 in /  0 mm
03:29 31.9 °F /  -0.1 °C 26.4 °F /  -3.1 °C 29.92 in /  1013.1 hPa NNW 6.8 mph /  10.9 km/h 6.8 mph /  10.9 km/h 80 % 0.00 in /  0 mm
03:34 31.9 °F /  -0.1 °C 26.1 °F /  -3.3 °C 29.92 in /  1013.1 hPa North 4.4 mph /  7.1 km/h 8.1 mph /  13 km/h 79 % 0.00 in /  0 mm
03:39 31.9 °F /  -0.1 °C 26.4 °F /  -3.1 °C 29.92 in /  1013.1 hPa NW 4.3 mph /  6.9 km/h 11.5 mph /  18.5 km/h 80 % 0.00 in /  0 mm
03:44 31.9 °F /  -0.1 °C 26.1 °F /  -3.3 °C 29.92 in /  1013.1 hPa NNW 6.2 mph /  10 km/h 11.5 mph /  18.5 km/h 79 % 0.00 in /  0 mm
03:49 31.8 °F /  -0.1 °C 25.7 °F /  -3.5 °C 29.92 in /  1013.1 hPa North 8.8 mph /  14.2 km/h 15.0 mph /  24.1 km/h 78 % 0.00 in /  0 mm
03:54 31.7 °F /  -0.2 °C 25.3 °F /  -3.7 °C 29.92 in /  1013.1 hPa NNE 7.4 mph /  11.9 km/h 11.5 mph /  18.5 km/h 77 % 0.00 in /  0 mm
03:59 31.6 °F /  -0.2 °C 25.5 °F /  -3.6 °C 29.92 in /  1013.1 hPa North 4.6 mph /  7.4 km/h 10.4 mph /  16.7 km/h 78 % 0.00 in /  0 mm
04:04 31.5 °F /  -0.3 °C 25.4 °F /  -3.7 °C 29.92 in /  1013.1 hPa NNW 3.8 mph /  6.1 km/h 10.4 mph /  16.7 km/h 78 % 0.00 in /  0 mm
04:09 31.4 °F /  -0.3 °C 25.3 °F /  -3.7 °C 29.93 in /  1013.4 hPa North 5.6 mph /  9 km/h 10.4 mph /  16.7 km/h 78 % 0.00 in /  0 mm
04:14 31.3 °F /  -0.4 °C 25.2 °F /  -3.8 °C 29.93 in /  1013.4 hPa NNW 6.4 mph /  10.3 km/h 15.0 mph /  24.1 km/h 78 % 0.00 in /  0 mm
04:19 31.2 °F /  -0.4 °C 24.8 °F /  -4 °C 29.93 in /  1013.4 hPa NNW 4.5 mph /  7.2 km/h 6.9 mph /  11.1 km/h 77 % 0.00 in /  0 mm
04:24 31.0 °F /  -0.6 °C 24.6 °F /  -4.1 °C 29.94 in /  1013.8 hPa NNW 6.9 mph /  11.1 km/h 12.7 mph /  20.4 km/h 77 % 0.00 in /  0 mm
04:29 30.9 °F /  -0.6 °C 24.5 °F /  -4.2 °C 29.94 in /  1013.8 hPa North 4.6 mph /  7.4 km/h 9.2 mph /  14.8 km/h 77 % 0.00 in /  0 mm
04:34 30.8 °F /  -0.7 °C 24.4 °F /  -4.2 °C 29.95 in /  1014.1 hPa North 4.2 mph /  6.8 km/h 11.0 mph /  17.7 km/h 77 % 0.00 in /  0 mm
04:39 30.7 °F /  -0.7 °C 24.3 °F /  -4.3 °C 29.94 in /  1013.8 hPa North 5.6 mph /  9 km/h 13.8 mph /  22.2 km/h 77 % 0.00 in /  0 mm
04:44 30.6 °F /  -0.8 °C 24.2 °F /  -4.3 °C 29.95 in /  1014.1 hPa North 2.4 mph /  3.9 km/h 11.5 mph /  18.5 km/h 77 % 0.00 in /  0 mm
04:50 30.5 °F /  -0.8 °C 23.8 °F /  -4.6 °C 29.94 in /  1013.8 hPa North 5.6 mph /  9 km/h 7.0 mph /  11.3 km/h 76 % 0.00 in /  0 mm
04:55 30.3 °F /  -0.9 °C 24.0 °F /  -4.4 °C 29.95 in /  1014.1 hPa North 4.7 mph /  7.6 km/h 8.0 mph /  12.9 km/h 77 % 0.00 in /  0 mm
05:00 30.2 °F /  -1 °C 23.9 °F /  -4.5 °C 29.95 in /  1014.1 hPa North 5.9 mph /  9.5 km/h 13.8 mph /  22.2 km/h 77 % 0.00 in /  0 mm
05:05 30.1 °F /  -1.1 °C 23.4 °F /  -4.8 °C 29.96 in /  1014.4 hPa North 6.6 mph /  10.6 km/h 12.7 mph /  20.4 km/h 76 % 0.00 in /  0 mm
05:10 30.0 °F /  -1.1 °C 23.7 °F /  -4.6 °C 29.96 in /  1014.4 hPa NNW 6.0 mph /  9.7 km/h 10.4 mph /  16.7 km/h 77 % 0.00 in /  0 mm
05:15 29.9 °F /  -1.2 °C 23.6 °F /  -4.7 °C 29.96 in /  1014.4 hPa NNE 10.1 mph /  16.3 km/h 17.3 mph /  27.8 km/h 77 % 0.00 in /  0 mm
05:20 29.8 °F /  -1.2 °C 23.2 °F /  -4.9 °C 29.96 in /  1014.4 hPa NNE 7.6 mph /  12.2 km/h 12.7 mph /  20.4 km/h 76 % 0.00 in /  0 mm
05:25 29.7 °F /  -1.3 °C 23.1 °F /  -4.9 °C 29.97 in /  1014.8 hPa NNE 9.3 mph /  15 km/h 15.0 mph /  24.1 km/h 76 % 0.00 in /  0 mm
05:30 29.6 °F /  -1.3 °C 22.6 °F /  -5.2 °C 29.97 in /  1014.8 hPa NNW 7.4 mph /  11.9 km/h 10.4 mph /  16.7 km/h 75 % 0.00 in /  0 mm
05:35 29.6 °F /  -1.3 °C 22.6 °F /  -5.2 °C 29.97 in /  1014.8 hPa North 8.9 mph /  14.3 km/h 12.7 mph /  20.4 km/h 75 % 0.00 in /  0 mm
05:40 29.5 °F /  -1.4 °C 22.6 °F /  -5.2 °C 29.99 in /  1015.5 hPa North 5.4 mph /  8.7 km/h 10.4 mph /  16.7 km/h 75 % 0.00 in /  0 mm
05:45 29.4 °F /  -1.4 °C 22.5 °F /  -5.3 °C 29.99 in /  1015.5 hPa NE 5.2 mph /  8.4 km/h 9.2 mph /  14.8 km/h 75 % 0.00 in /  0 mm
05:50 29.3 °F /  -1.5 °C 22.0 °F /  -5.6 °C 29.99 in /  1015.5 hPa NNW 7.5 mph /  12.1 km/h 11.0 mph /  17.7 km/h 74 % 0.00 in /  0 mm
05:55 29.3 °F /  -1.5 °C 22.0 °F /  -5.6 °C 29.99 in /  1015.5 hPa North 6.7 mph /  10.8 km/h 10.0 mph /  16.1 km/h 74 % 0.00 in /  0 mm
06:00 29.2 °F /  -1.6 °C 22.3 °F /  -5.4 °C 29.99 in /  1015.5 hPa North 5.6 mph /  9 km/h 9.2 mph /  14.8 km/h 75 % 0.00 in /  0 mm
06:05 29.1 °F /  -1.6 °C 21.8 °F /  -5.7 °C 29.99 in /  1015.5 hPa NNW 7.5 mph /  12.1 km/h 11.0 mph /  17.7 km/h 74 % 0.00 in /  0 mm
06:10 28.9 °F /  -1.7 °C 21.3 °F /  -5.9 °C 30.00 in /  1015.8 hPa North 3.4 mph /  5.5 km/h 11.0 mph /  17.7 km/h 73 % 0.00 in /  0 mm
06:15 28.8 °F /  -1.8 °C 20.6 °F /  -6.3 °C 30.01 in /  1016.1 hPa NNW 6.1 mph /  9.8 km/h 11.5 mph /  18.5 km/h 71 % 0.00 in /  0 mm
06:20 28.7 °F /  -1.8 °C 20.8 °F /  -6.2 °C 30.01 in /  1016.1 hPa NNE 8.2 mph /  13.2 km/h 12.7 mph /  20.4 km/h 72 % 0.00 in /  0 mm
06:26 28.7 °F /  -1.8 °C 21.1 °F /  -6.1 °C 30.01 in /  1016.1 hPa North 6.0 mph /  9.7 km/h 13.0 mph /  20.9 km/h 73 % 0.00 in /  0 mm
06:31 28.6 °F /  -1.9 °C 21.0 °F /  -6.1 °C 30.01 in /  1016.1 hPa North 6.0 mph /  9.7 km/h 12.0 mph /  19.3 km/h 73 % 0.00 in /  0 mm
06:36 28.5 °F /  -1.9 °C 20.9 °F /  -6.2 °C 30.02 in /  1016.5 hPa North 7.0 mph /  11.3 km/h 12.0 mph /  19.3 km/h 73 % 0.00 in /  0 mm
06:41 28.4 °F /  -2 °C 20.8 °F /  -6.2 °C 30.02 in /  1016.5 hPa North 6.8 mph /  10.9 km/h 6.9 mph /  11.1 km/h 73 % 0.00 in /  0 mm
06:46 28.3 °F /  -2.1 °C 20.4 °F /  -6.4 °C 30.02 in /  1016.5 hPa North 7.0 mph /  11.3 km/h 12.0 mph /  19.3 km/h 72 % 0.00 in /  0 mm
06:51 28.3 °F /  -2.1 °C 20.4 °F /  -6.4 °C 30.02 in /  1016.5 hPa North 5.0 mph /  8 km/h 10.0 mph /  16.1 km/h 72 % 0.00 in /  0 mm
06:56 28.2 °F /  -2.1 °C 20.3 °F /  -6.5 °C 30.03 in /  1016.8 hPa North 7.0 mph /  11.3 km/h 12.0 mph /  19.3 km/h 72 % 0.00 in /  0 mm
07:01 28.1 °F /  -2.2 °C 20.2 °F /  -6.6 °C 30.04 in /  1017.2 hPa NNW 5.2 mph /  8.4 km/h 7.0 mph /  11.3 km/h 72 % 0.00 in /  0 mm
07:06 28.0 °F /  -2.2 °C 19.8 °F /  -6.8 °C 30.04 in /  1017.2 hPa NNW 5.5 mph /  8.9 km/h 9.2 mph /  14.8 km/h 71 % 0.00 in /  0 mm
07:11 27.9 °F /  -2.3 °C 19.7 °F /  -6.8 °C 30.05 in /  1017.5 hPa North 4.6 mph /  7.4 km/h 11.5 mph /  18.5 km/h 71 % 0.00 in /  0 mm
07:16 27.8 °F /  -2.3 °C 19.6 °F /  -6.9 °C 30.04 in /  1017.2 hPa NW 4.2 mph /  6.8 km/h 6.9 mph /  11.1 km/h 71 % 0.00 in /  0 mm
07:21 27.8 °F /  -2.3 °C 19.3 °F /  -7.1 °C 30.05 in /  1017.5 hPa NNE 6.8 mph /  10.9 km/h 11.5 mph /  18.5 km/h 70 % 0.00 in /  0 mm
07:26 27.7 °F /  -2.4 °C 19.5 °F /  -6.9 °C 30.05 in /  1017.5 hPa NW 4.3 mph /  6.9 km/h 11.5 mph /  18.5 km/h 71 % 0.00 in /  0 mm
07:31 27.6 °F /  -2.4 °C 19.1 °F /  -7.2 °C 30.05 in /  1017.5 hPa NW 4.5 mph /  7.2 km/h 9.2 mph /  14.8 km/h 70 % 0.00 in /  0 mm
07:36 27.6 °F /  -2.4 °C 19.4 °F /  -7 °C 30.06 in /  1017.8 hPa NW 3.8 mph /  6.1 km/h 6.9 mph /  11.1 km/h 71 % 0.00 in /  0 mm
07:41 27.6 °F /  -2.4 °C 19.8 °F /  -6.8 °C 30.06 in /  1017.8 hPa NW 6.0 mph /  9.7 km/h 10.0 mph /  16.1 km/h 72 % 0.00 in /  0 mm
07:46 27.5 °F /  -2.5 °C 19.7 °F /  -6.8 °C 30.06 in /  1017.8 hPa NNW 5.4 mph /  8.7 km/h 10.4 mph /  16.7 km/h 72 % 0.00 in /  0 mm
07:51 27.5 °F /  -2.5 °C 19.3 °F /  -7.1 °C 30.07 in /  1018.2 hPa NNW 6.1 mph /  9.8 km/h 10.4 mph /  16.7 km/h 71 % 0.00 in /  0 mm
07:56 27.5 °F /  -2.5 °C 19.7 °F /  -6.8 °C 30.07 in /  1018.2 hPa North 4.0 mph /  6.4 km/h 7.0 mph /  11.3 km/h 72 % 0.00 in /  0 mm
08:01 27.5 °F /  -2.5 °C 20.0 °F /  -6.7 °C 30.08 in /  1018.5 hPa NNE 5.2 mph /  8.4 km/h 11.5 mph /  18.5 km/h 73 % 0.00 in /  0 mm
08:06 27.4 °F /  -2.6 °C 19.9 °F /  -6.7 °C 30.07 in /  1018.2 hPa North 3.7 mph /  6 km/h 10.4 mph /  16.7 km/h 73 % 0.00 in /  0 mm
08:11 27.3 °F /  -2.6 °C 19.5 °F /  -6.9 °C 30.08 in /  1018.5 hPa North 2.7 mph /  4.3 km/h 7.0 mph /  11.3 km/h 72 % 0.00 in /  0 mm
08:16 27.2 °F /  -2.7 °C 19.4 °F /  -7 °C 30.08 in /  1018.5 hPa NNW 3.5 mph /  5.6 km/h 6.9 mph /  11.1 km/h 72 % 0.00 in /  0 mm
08:21 27.2 °F /  -2.7 °C 19.7 °F /  -6.8 °C 30.08 in /  1018.5 hPa NNE 5.4 mph /  8.7 km/h 8.0 mph /  12.9 km/h 73 % 0.00 in /  0 mm
08:27 27.3 °F /  -2.6 °C 20.1 °F /  -6.6 °C 30.08 in /  1018.5 hPa NNE 2.1 mph /  3.4 km/h 9.2 mph /  14.8 km/h 74 % 0.00 in /  0 mm
08:32 27.4 °F /  -2.6 °C 20.5 °F /  -6.4 °C 30.09 in /  1018.8 hPa NNE 6.4 mph /  10.3 km/h 10.4 mph /  16.7 km/h 75 % 0.00 in /  0 mm
08:37 27.6 °F /  -2.4 °C 20.7 °F /  -6.3 °C 30.09 in /  1018.8 hPa North 1.2 mph /  1.9 km/h 3.5 mph /  5.6 km/h 75 % 0.00 in /  0 mm
08:42 27.8 °F /  -2.3 °C 20.9 °F /  -6.2 °C 30.09 in /  1018.8 hPa NNE 5.0 mph /  8 km/h 9.2 mph /  14.8 km/h 75 % 0.00 in /  0 mm
08:47 28.1 °F /  -2.2 °C 21.2 °F /  -6 °C 30.09 in /  1018.8 hPa NNE 4.1 mph /  6.6 km/h 6.9 mph /  11.1 km/h 75 % 0.00 in /  0 mm
08:52 28.4 °F /  -2 °C 21.2 °F /  -6 °C 30.09 in /  1018.8 hPa NE 5.3 mph /  8.5 km/h 9.2 mph /  14.8 km/h 74 % 0.00 in /  0 mm
08:57 28.8 °F /  -1.8 °C 21.2 °F /  -6 °C 30.09 in /  1018.8 hPa NNE 5.1 mph /  8.2 km/h 7.0 mph /  11.3 km/h 73 % 0.00 in /  0 mm
09:02 29.3 °F /  -1.5 °C 22.0 °F /  -5.6 °C 30.09 in /  1018.8 hPa North 4.2 mph /  6.8 km/h 7.0 mph /  11.3 km/h 74 % 0.00 in /  0 mm
09:07 29.7 °F /  -1.3 °C 21.8 °F /  -5.7 °C 30.09 in /  1018.8 hPa North 1.2 mph /  1.9 km/h 4.6 mph /  7.4 km/h 72 % 0.00 in /  0 mm
09:12 30.2 °F /  -1 °C 21.9 °F /  -5.6 °C 30.10 in /  1019.2 hPa NE 4.1 mph /  6.6 km/h 5.0 mph /  8 km/h 71 % 0.00 in /  0 mm
09:17 30.9 °F /  -0.6 °C 22.6 °F /  -5.2 °C 30.10 in /  1019.2 hPa NNE 1.8 mph /  2.9 km/h 5.8 mph /  9.3 km/h 71 % 0.00 in /  0 mm
09:22 31.4 °F /  -0.3 °C 22.7 °F /  -5.2 °C 30.09 in /  1018.8 hPa NNE 0.9 mph /  1.4 km/h 3.5 mph /  5.6 km/h 70 % 0.00 in /  0 mm
09:27 31.7 °F /  -0.2 °C 22.7 °F /  -5.2 °C 30.09 in /  1018.8 hPa NNE 5.3 mph /  8.5 km/h 8.1 mph /  13 km/h 69 % 0.00 in /  0 mm
09:32 31.4 °F /  -0.3 °C 21.3 °F /  -5.9 °C 30.10 in /  1019.2 hPa North 3.1 mph /  5 km/h 5.0 mph /  8 km/h 66 % 0.00 in /  0 mm
09:37 31.1 °F /  -0.5 °C 21.4 °F /  -5.9 °C 30.09 in /  1018.8 hPa North 3.5 mph /  5.6 km/h 4.6 mph /  7.4 km/h 67 % 0.00 in /  0 mm
09:42 31.2 °F /  -0.4 °C 21.9 °F /  -5.6 °C 30.09 in /  1018.8 hPa North 3.1 mph /  5 km/h 4.6 mph /  7.4 km/h 68 % 0.00 in /  0 mm
09:47 31.3 °F /  -0.4 °C 21.3 °F /  -5.9 °C 30.09 in /  1018.8 hPa NNE 5.0 mph /  8 km/h 6.9 mph /  11.1 km/h 66 % 0.00 in /  0 mm
09:52 31.7 °F /  -0.2 °C 22.0 °F /  -5.6 °C 30.10 in /  1019.2 hPa WNW 3.1 mph /  5 km/h 5.8 mph /  9.3 km/h 67 % 0.00 in /  0 mm
09:58 32.2 °F /  0.1 °C 22.1 °F /  -5.5 °C 30.10 in /  1019.2 hPa North 2.8 mph /  4.5 km/h 3.5 mph /  5.6 km/h 66 % 0.00 in /  0 mm
10:03 32.3 °F /  0.2 °C 21.1 °F /  -6.1 °C 30.10 in /  1019.2 hPa North 1.3 mph /  2.1 km/h 4.6 mph /  7.4 km/h 63 % 0.00 in /  0 mm
10:08 32.5 °F /  0.3 °C 21.3 °F /  -5.9 °C 30.10 in /  1019.2 hPa WNW 3.0 mph /  4.8 km/h 8.1 mph /  13 km/h 63 % 0.00 in /  0 mm
10:13 32.6 °F /  0.3 °C 21.0 °F /  -6.1 °C 30.11 in /  1019.5 hPa West 3.9 mph /  6.3 km/h 8.1 mph /  13 km/h 62 % 0.00 in /  0 mm
10:18 32.8 °F /  0.4 °C 20.8 °F /  -6.2 °C 30.11 in /  1019.5 hPa WNW 3.4 mph /  5.5 km/h 5.8 mph /  9.3 km/h 61 % 0.00 in /  0 mm
10:23 32.9 °F /  0.5 °C 20.5 °F /  -6.4 °C 30.11 in /  1019.5 hPa NNW 5.4 mph /  8.7 km/h 8.1 mph /  13 km/h 60 % 0.00 in /  0 mm
10:28 33.0 °F /  0.6 °C 21.0 °F /  -6.1 °C 30.11 in /  1019.5 hPa NW 3.4 mph /  5.5 km/h 4.6 mph /  7.4 km/h 61 % 0.00 in /  0 mm
10:33 33.2 °F /  0.7 °C 21.2 °F /  -6 °C 30.11 in /  1019.5 hPa WNW 3.1 mph /  5 km/h 6.0 mph /  9.7 km/h 61 % 0.00 in /  0 mm
10:38 33.3 °F /  0.7 °C 20.9 °F /  -6.2 °C 30.11 in /  1019.5 hPa NW 4.7 mph /  7.6 km/h 8.1 mph /  13 km/h 60 % 0.00 in /  0 mm
10:43 33.4 °F /  0.8 °C 20.6 °F /  -6.3 °C 30.10 in /  1019.2 hPa WNW 4.1 mph /  6.6 km/h 5.8 mph /  9.3 km/h 59 % 0.00 in /  0 mm
10:48 33.6 °F /  0.9 °C 21.2 °F /  -6 °C 30.11 in /  1019.5 hPa NW 3.0 mph /  4.8 km/h 5.8 mph /  9.3 km/h 60 % 0.00 in /  0 mm
10:53 34.0 °F /  1.1 °C 22.7 °F /  -5.2 °C 30.11 in /  1019.5 hPa West 1.7 mph /  2.7 km/h 4.0 mph /  6.4 km/h 63 % 0.00 in /  0 mm
10:58 34.4 °F /  1.3 °C 22.3 °F /  -5.4 °C 30.11 in /  1019.5 hPa NW 2.2 mph /  3.5 km/h 4.6 mph /  7.4 km/h 61 % 0.00 in /  0 mm
11:03 34.7 °F /  1.5 °C 22.2 °F /  -5.4 °C 30.11 in /  1019.5 hPa North 2.4 mph /  3.9 km/h 7.0 mph /  11.3 km/h 60 % 0.00 in /  0 mm
11:08 34.7 °F /  1.5 °C 21.8 °F /  -5.7 °C 30.11 in /  1019.5 hPa NW 4.3 mph /  6.9 km/h 5.8 mph /  9.3 km/h 59 % 0.00 in /  0 mm
11:13 34.7 °F /  1.5 °C 21.4 °F /  -5.9 °C 30.10 in /  1019.2 hPa WSW 4.7 mph /  7.6 km/h 8.1 mph /  13 km/h 58 % 0.00 in /  0 mm
11:14 34.7 °F /  1.5 °C 21.0 °F /  -6.1 °C 30.10 in /  1019.2 hPa West 4.8 mph /  7.7 km/h 8.1 mph /  13 km/h 57 % 0.00 in /  0 mm
11:19 34.6 °F /  1.4 °C 21.3 °F /  -5.9 °C 30.10 in /  1019.2 hPa NW 2.8 mph /  4.5 km/h 4.6 mph /  7.4 km/h 58 % 0.00 in /  0 mm
11:24 34.5 °F /  1.4 °C 20.4 °F /  -6.4 °C 30.10 in /  1019.2 hPa West 3.2 mph /  5.1 km/h 5.0 mph /  8 km/h 56 % 0.00 in /  0 mm
11:29 34.4 °F /  1.3 °C 20.7 °F /  -6.3 °C 30.10 in /  1019.2 hPa WNW 6.9 mph /  11.1 km/h 9.2 mph /  14.8 km/h 57 % 0.00 in /  0 mm
11:34 34.3 °F /  1.3 °C 20.2 °F /  -6.6 °C 30.10 in /  1019.2 hPa NNW 1.8 mph /  2.9 km/h 5.8 mph /  9.3 km/h 56 % 0.00 in /  0 mm
11:39 34.4 °F /  1.3 °C 21.5 °F /  -5.8 °C 30.09 in /  1018.8 hPa NW 4.3 mph /  6.9 km/h 8.1 mph /  13 km/h 59 % 0.00 in /  0 mm
11:44 34.3 °F /  1.3 °C 21.0 °F /  -6.1 °C 30.09 in /  1018.8 hPa NNW 5.2 mph /  8.4 km/h 8.1 mph /  13 km/h 58 % 0.00 in /  0 mm
11:49 34.1 °F /  1.2 °C 20.9 °F /  -6.2 °C 30.09 in /  1018.8 hPa North 2.3 mph /  3.7 km/h 4.6 mph /  7.4 km/h 58 % 0.00 in /  0 mm
11:54 33.8 °F /  1 °C 20.6 °F /  -6.3 °C 30.09 in /  1018.8 hPa WNW 3.1 mph /  5 km/h 7.0 mph /  11.3 km/h 58 % 0.00 in /  0 mm
11:59 33.4 °F /  0.8 °C 20.6 °F /  -6.3 °C 30.09 in /  1018.8 hPa NW 2.4 mph /  3.9 km/h 4.0 mph /  6.4 km/h 59 % 0.00 in /  0 mm
12:04 33.4 °F /  0.8 °C 20.2 °F /  -6.6 °C 30.09 in /  1018.8 hPa West 3.1 mph /  5 km/h 8.1 mph /  13 km/h 58 % 0.00 in /  0 mm
12:09 33.3 °F /  0.7 °C 20.1 °F /  -6.6 °C 30.09 in /  1018.8 hPa NNE 3.8 mph /  6.1 km/h 8.1 mph /  13 km/h 58 % 0.00 in /  0 mm
12:14 33.2 °F /  0.7 °C 20.4 °F /  -6.4 °C 30.10 in /  1019.2 hPa WNW 3.1 mph /  5 km/h 5.8 mph /  9.3 km/h 59 % 0.00 in /  0 mm
12:20 33.2 °F /  0.7 °C 21.2 °F /  -6 °C 30.09 in /  1018.8 hPa WNW 2.6 mph /  4.2 km/h 6.0 mph /  9.7 km/h 61 % 0.00 in /  0 mm
12:25 33.3 °F /  0.7 °C 20.5 °F /  -6.4 °C 30.09 in /  1018.8 hPa North 3.2 mph /  5.1 km/h 4.0 mph /  6.4 km/h 59 % 0.00 in /  0 mm
12:30 33.4 °F /  0.8 °C 20.2 °F /  -6.6 °C 30.09 in /  1018.8 hPa NW 3.9 mph /  6.3 km/h 8.1 mph /  13 km/h 58 % 0.00 in /  0 mm
12:35 33.7 °F /  0.9 °C 20.5 °F /  -6.4 °C 30.09 in /  1018.8 hPa North 5.4 mph /  8.7 km/h 9.0 mph /  14.5 km/h 58 % 0.00 in /  0 mm
12:40 33.8 °F /  1 °C 20.2 °F /  -6.6 °C 30.08 in /  1018.5 hPa North 4.0 mph /  6.4 km/h 5.8 mph /  9.3 km/h 57 % 0.00 in /  0 mm
12:45 33.8 °F /  1 °C 20.2 °F /  -6.6 °C 30.08 in /  1018.5 hPa North 3.4 mph /  5.5 km/h 8.1 mph /  13 km/h 57 % 0.00 in /  0 mm
12:50 33.9 °F /  1.1 °C 19.8 °F /  -6.8 °C 30.08 in /  1018.5 hPa NW 2.8 mph /  4.5 km/h 4.6 mph /  7.4 km/h 56 % 0.00 in /  0 mm
12:55 34.0 °F /  1.1 °C 20.3 °F /  -6.5 °C 30.08 in /  1018.5 hPa West 1.1 mph /  1.8 km/h 4.0 mph /  6.4 km/h 57 % 0.00 in /  0 mm
13:00 34.4 °F /  1.3 °C 21.1 °F /  -6.1 °C 30.09 in /  1018.8 hPa West 4.0 mph /  6.4 km/h 6.9 mph /  11.1 km/h 58 % 0.00 in /  0 mm
13:05 34.6 °F /  1.4 °C 20.9 °F /  -6.2 °C 30.09 in /  1018.8 hPa SW 3.9 mph /  6.3 km/h 5.0 mph /  8 km/h 57 % 0.00 in /  0 mm
13:10 34.6 °F /  1.4 °C 20.5 °F /  -6.4 °C 30.09 in /  1018.8 hPa WNW 6.2 mph /  10 km/h 11.5 mph /  18.5 km/h 56 % 0.00 in /  0 mm
13:15 34.6 °F /  1.4 °C 20.5 °F /  -6.4 °C 30.08 in /  1018.5 hPa West 4.0 mph /  6.4 km/h 6.9 mph /  11.1 km/h 56 % 0.00 in /  0 mm
13:20 34.6 °F /  1.4 °C 20.1 °F /  -6.6 °C 30.08 in /  1018.5 hPa WNW 3.3 mph /  5.3 km/h 6.9 mph /  11.1 km/h 55 % 0.00 in /  0 mm
13:25 34.6 °F /  1.4 °C 20.5 °F /  -6.4 °C 30.08 in /  1018.5 hPa SW 7.2 mph /  11.6 km/h 11.5 mph /  18.5 km/h 56 % 0.00 in /  0 mm
13:30 34.6 °F /  1.4 °C 20.5 °F /  -6.4 °C 30.07 in /  1018.2 hPa West 3.9 mph /  6.3 km/h 6.9 mph /  11.1 km/h 56 % 0.00 in /  0 mm
13:35 34.6 °F /  1.4 °C 20.5 °F /  -6.4 °C 30.07 in /  1018.2 hPa NW 4.5 mph /  7.2 km/h 11.5 mph /  18.5 km/h 56 % 0.00 in /  0 mm
13:41 34.4 °F /  1.3 °C 19.9 °F /  -6.7 °C 30.07 in /  1018.2 hPa West 2.0 mph /  3.2 km/h 10.0 mph /  16.1 km/h 55 % 0.00 in /  0 mm
13:46 34.2 °F /  1.2 °C 20.1 °F /  -6.6 °C 30.07 in /  1018.2 hPa West 3.0 mph /  4.8 km/h 10.0 mph /  16.1 km/h 56 % 0.00 in /  0 mm
13:51 34.3 °F /  1.3 °C 20.2 °F /  -6.6 °C 30.06 in /  1017.8 hPa WNW 3.0 mph /  4.8 km/h 8.0 mph /  12.9 km/h 56 % 0.00 in /  0 mm
13:56 34.3 °F /  1.3 °C 20.2 °F /  -6.6 °C 30.06 in /  1017.8 hPa West 5.0 mph /  8 km/h 12.0 mph /  19.3 km/h 56 % 0.00 in /  0 mm
14:01 34.3 °F /  1.3 °C 20.2 °F /  -6.6 °C 30.06 in /  1017.8 hPa SW 2.0 mph /  3.2 km/h 8.1 mph /  13 km/h 56 % 0.00 in /  0 mm
14:06 34.5 °F /  1.4 °C 20.8 °F /  -6.2 °C 30.06 in /  1017.8 hPa SW 2.2 mph /  3.5 km/h 6.9 mph /  11.1 km/h 57 % 0.00 in /  0 mm
14:11 34.4 °F /  1.3 °C 20.3 °F /  -6.5 °C 30.05 in /  1017.5 hPa WSW 4.9 mph /  7.9 km/h 11.5 mph /  18.5 km/h 56 % 0.00 in /  0 mm
14:16 34.4 °F /  1.3 °C 19.9 °F /  -6.7 °C 30.05 in /  1017.5 hPa WSW 4.1 mph /  6.6 km/h 10.4 mph /  16.7 km/h 55 % 0.00 in /  0 mm
14:21 34.3 °F /  1.3 °C 19.8 °F /  -6.8 °C 30.05 in /  1017.5 hPa WNW 5.1 mph /  8.2 km/h 11.5 mph /  18.5 km/h 55 % 0.00 in /  0 mm
14:26 34.0 °F /  1.1 °C 19.9 °F /  -6.7 °C 30.06 in /  1017.8 hPa WNW 5.0 mph /  8 km/h 9.2 mph /  14.8 km/h 56 % 0.00 in /  0 mm
14:31 33.8 °F /  1 °C 19.7 °F /  -6.8 °C 30.06 in /  1017.8 hPa NW 5.5 mph /  8.9 km/h 9.2 mph /  14.8 km/h 56 % 0.00 in /  0 mm
14:36 33.5 °F /  0.8 °C 19.5 °F /  -6.9 °C 30.06 in /  1017.8 hPa SSW 7.0 mph /  11.3 km/h 11.5 mph /  18.5 km/h 56 % 0.00 in /  0 mm
14:41 33.2 °F /  0.7 °C 19.6 °F /  -6.9 °C 30.06 in /  1017.8 hPa WSW 3.4 mph /  5.5 km/h 8.1 mph /  13 km/h 57 % 0.00 in /  0 mm
14:46 32.9 °F /  0.5 °C 19.7 °F /  -6.8 °C 30.06 in /  1017.8 hPa NW 4.3 mph /  6.9 km/h 6.9 mph /  11.1 km/h 58 % 0.00 in /  0 mm
14:51 32.6 °F /  0.3 °C 19.4 °F /  -7 °C 30.06 in /  1017.8 hPa West 5.8 mph /  9.3 km/h 12.0 mph /  19.3 km/h 58 % 0.00 in /  0 mm
14:56 32.4 °F /  0.2 °C 19.3 °F /  -7.1 °C 30.06 in /  1017.8 hPa WNW 3.5 mph /  5.6 km/h 5.8 mph /  9.3 km/h 58 % 0.00 in /  0 mm
15:01 32.1 °F /  0.1 °C 19.0 °F /  -7.2 °C 30.06 in /  1017.8 hPa WNW 4.8 mph /  7.7 km/h 6.9 mph /  11.1 km/h 58 % 0.00 in /  0 mm
15:06 31.9 °F /  -0.1 °C 18.8 °F /  -7.3 °C 30.06 in /  1017.8 hPa NW 6.6 mph /  10.6 km/h 8.1 mph /  13 km/h 58 % 0.00 in /  0 mm
15:11 31.6 °F /  -0.2 °C 19.3 °F /  -7.1 °C 30.06 in /  1017.8 hPa West 2.3 mph /  3.7 km/h 11.5 mph /  18.5 km/h 60 % 0.00 in /  0 mm
15:16 31.5 °F /  -0.3 °C 19.6 °F /  -6.9 °C 30.06 in /  1017.8 hPa WNW 4.8 mph /  7.7 km/h 6.9 mph /  11.1 km/h 61 % 0.00 in /  0 mm
15:21 31.4 °F /  -0.3 °C 19.5 °F /  -6.9 °C 30.07 in /  1018.2 hPa NW 4.2 mph /  6.8 km/h 9.2 mph /  14.8 km/h 61 % 0.00 in /  0 mm
15:26 31.3 °F /  -0.4 °C 19.0 °F /  -7.2 °C 30.07 in /  1018.2 hPa WNW 5.1 mph /  8.2 km/h 10.4 mph /  16.7 km/h 60 % 0.00 in /  0 mm
15:31 31.1 °F /  -0.5 °C 19.2 °F /  -7.1 °C 30.07 in /  1018.2 hPa SW 7.0 mph /  11.3 km/h 11.0 mph /  17.7 km/h 61 % 0.00 in /  0 mm
15:37 31.0 °F /  -0.6 °C 19.1 °F /  -7.2 °C 30.07 in /  1018.2 hPa NW 6.7 mph /  10.8 km/h 8.1 mph /  13 km/h 61 % 0.00 in /  0 mm
15:42 30.9 °F /  -0.6 °C 19.0 °F /  -7.2 °C 30.08 in /  1018.5 hPa WSW 3.4 mph /  5.5 km/h 8.1 mph /  13 km/h 61 % 0.00 in /  0 mm
15:47 30.7 °F /  -0.7 °C 19.2 °F /  -7.1 °C 30.07 in /  1018.2 hPa WSW 3.9 mph /  6.3 km/h 8.1 mph /  13 km/h 62 % 0.00 in /  0 mm
15:52 30.7 °F /  -0.7 °C 19.2 °F /  -7.1 °C 30.08 in /  1018.5 hPa NW 3.3 mph /  5.3 km/h 5.8 mph /  9.3 km/h 62 % 0.00 in /  0 mm
15:57 30.6 °F /  -0.8 °C 19.1 °F /  -7.2 °C 30.08 in /  1018.5 hPa SW 5.0 mph /  8 km/h 10.4 mph /  16.7 km/h 62 % 0.00 in /  0 mm
16:02 30.5 °F /  -0.8 °C 19.0 °F /  -7.2 °C 30.08 in /  1018.5 hPa West 2.5 mph /  4 km/h 8.1 mph /  13 km/h 62 % 0.00 in /  0 mm
16:07 30.4 °F /  -0.9 °C 18.9 °F /  -7.3 °C 30.08 in /  1018.5 hPa WNW 3.0 mph /  4.8 km/h 5.8 mph /  9.3 km/h 62 % 0.00 in /  0 mm
16:12 30.3 °F /  -0.9 °C 19.2 °F /  -7.1 °C 30.08 in /  1018.5 hPa WNW 3.7 mph /  6 km/h 6.9 mph /  11.1 km/h 63 % 0.00 in /  0 mm
16:17 30.2 °F /  -1 °C 19.1 °F /  -7.2 °C 30.08 in /  1018.5 hPa WNW 2.4 mph /  3.9 km/h 8.1 mph /  13 km/h 63 % 0.00 in /  0 mm
16:22 30.1 °F /  -1.1 °C 19.0 °F /  -7.2 °C 30.08 in /  1018.5 hPa NW 2.1 mph /  3.4 km/h 3.5 mph /  5.6 km/h 63 % 0.00 in /  0 mm
16:27 30.0 °F /  -1.1 °C 19.3 °F /  -7.1 °C 30.09 in /  1018.8 hPa WNW 2.0 mph /  3.2 km/h 7.0 mph /  11.3 km/h 64 % 0.00 in /  0 mm
16:32 29.9 °F /  -1.2 °C 18.8 °F /  -7.3 °C 30.08 in /  1018.5 hPa NW 4.4 mph /  7.1 km/h 6.9 mph /  11.1 km/h 63 % 0.00 in /  0 mm
16:37 29.9 °F /  -1.2 °C 18.8 °F /  -7.3 °C 30.08 in /  1018.5 hPa WNW 4.6 mph /  7.4 km/h 9.2 mph /  14.8 km/h 63 % 0.00 in /  0 mm
16:42 29.8 °F /  -1.2 °C 18.7 °F /  -7.4 °C 30.08 in /  1018.5 hPa WNW 4.8 mph /  7.7 km/h 9.2 mph /  14.8 km/h 63 % 0.00 in /  0 mm
16:47 29.7 °F /  -1.3 °C 19.0 °F /  -7.2 °C 30.09 in /  1018.8 hPa WNW 1.9 mph /  3.1 km/h 4.6 mph /  7.4 km/h 64 % 0.00 in /  0 mm
16:52 29.6 °F /  -1.3 °C 18.9 °F /  -7.3 °C 30.10 in /  1019.2 hPa WNW 3.2 mph /  5.1 km/h 8.1 mph /  13 km/h 64 % 0.00 in /  0 mm
16:57 29.6 °F /  -1.3 °C 19.3 °F /  -7.1 °C 30.10 in /  1019.2 hPa WNW 3.6 mph /  5.8 km/h 8.1 mph /  13 km/h 65 % 0.00 in /  0 mm
17:02 29.4 °F /  -1.4 °C 19.1 °F /  -7.2 °C 30.10 in /  1019.2 hPa WNW 1.5 mph /  2.4 km/h 4.6 mph /  7.4 km/h 65 % 0.00 in /  0 mm
17:08 29.4 °F /  -1.4 °C 19.1 °F /  -7.2 °C 30.09 in /  1018.8 hPa WNW 0.7 mph /  1.1 km/h 9.2 mph /  14.8 km/h 65 % 0.00 in /  0 mm
17:13 29.3 °F /  -1.5 °C 19.0 °F /  -7.2 °C 30.10 in /  1019.2 hPa WNW 4.8 mph /  7.7 km/h 6.9 mph /  11.1 km/h 65 % 0.00 in /  0 mm
17:18 29.2 °F /  -1.6 °C 18.9 °F /  -7.3 °C 30.10 in /  1019.2 hPa NNW 3.5 mph /  5.6 km/h 8.1 mph /  13 km/h 65 % 0.00 in /  0 mm
17:23 29.1 °F /  -1.6 °C 18.8 °F /  -7.3 °C 30.10 in /  1019.2 hPa NW 5.5 mph /  8.9 km/h 11.5 mph /  18.5 km/h 65 % 0.00 in /  0 mm
17:28 29.0 °F /  -1.7 °C 19.1 °F /  -7.2 °C 30.11 in /  1019.5 hPa WNW 3.7 mph /  6 km/h 9.0 mph /  14.5 km/h 66 % 0.00 in /  0 mm
17:33 28.9 °F /  -1.7 °C 18.6 °F /  -7.4 °C 30.11 in /  1019.5 hPa WNW 4.7 mph /  7.6 km/h 6.9 mph /  11.1 km/h 65 % 0.00 in /  0 mm
17:38 28.8 °F /  -1.8 °C 18.9 °F /  -7.3 °C 30.11 in /  1019.5 hPa NW 2.2 mph /  3.5 km/h 6.0 mph /  9.7 km/h 66 % 0.00 in /  0 mm
17:43 28.8 °F /  -1.8 °C 18.9 °F /  -7.3 °C 30.11 in /  1019.5 hPa WNW 2.4 mph /  3.9 km/h 6.9 mph /  11.1 km/h 66 % 0.00 in /  0 mm
17:48 28.8 °F /  -1.8 °C 18.9 °F /  -7.3 °C 30.11 in /  1019.5 hPa WNW 1.7 mph /  2.7 km/h 3.5 mph /  5.6 km/h 66 % 0.00 in /  0 mm
17:53 28.8 °F /  -1.8 °C 19.2 °F /  -7.1 °C 30.11 in /  1019.5 hPa NNW 3.6 mph /  5.8 km/h 7.0 mph /  11.3 km/h 67 % 0.00 in /  0 mm
17:58 28.7 °F /  -1.8 °C 19.1 °F /  -7.2 °C 30.11 in /  1019.5 hPa NW 5.4 mph /  8.7 km/h 12.0 mph /  19.3 km/h 67 % 0.00 in /  0 mm
18:03 28.8 °F /  -1.8 °C 18.9 °F /  -7.3 °C 30.12 in /  1019.9 hPa WNW 3.5 mph /  5.6 km/h 5.8 mph /  9.3 km/h 66 % 0.00 in /  0 mm
18:08 28.8 °F /  -1.8 °C 18.9 °F /  -7.3 °C 30.12 in /  1019.9 hPa WNW 2.4 mph /  3.9 km/h 3.0 mph /  4.8 km/h 66 % 0.00 in /  0 mm
18:13 28.8 °F /  -1.8 °C 18.9 °F /  -7.3 °C 30.12 in /  1019.9 hPa WNW 3.7 mph /  6 km/h 7.0 mph /  11.3 km/h 66 % 0.00 in /  0 mm
18:18 28.8 °F /  -1.8 °C 18.9 °F /  -7.3 °C 30.13 in /  1020.2 hPa NW 2.4 mph /  3.9 km/h 6.9 mph /  11.1 km/h 66 % 0.00 in /  0 mm
18:23 28.9 °F /  -1.7 °C 19.0 °F /  -7.2 °C 30.13 in /  1020.2 hPa NNW 3.1 mph /  5 km/h 6.9 mph /  11.1 km/h 66 % 0.00 in /  0 mm
18:28 28.9 °F /  -1.7 °C 18.6 °F /  -7.4 °C 30.13 in /  1020.2 hPa West 4.2 mph /  6.8 km/h 9.2 mph /  14.8 km/h 65 % 0.00 in /  0 mm
18:34 28.9 °F /  -1.7 °C 18.2 °F /  -7.7 °C 30.13 in /  1020.2 hPa NW 3.1 mph /  5 km/h 8.1 mph /  13 km/h 64 % 0.00 in /  0 mm
18:39 29.0 °F /  -1.7 °C 18.7 °F /  -7.4 °C 30.13 in /  1020.2 hPa NNW 2.9 mph /  4.7 km/h 4.6 mph /  7.4 km/h 65 % 0.00 in /  0 mm
18:44 29.0 °F /  -1.7 °C 18.3 °F /  -7.6 °C 30.13 in /  1020.2 hPa NW 5.2 mph /  8.4 km/h 8.1 mph /  13 km/h 64 % 0.00 in /  0 mm
18:49 29.0 °F /  -1.7 °C 18.3 °F /  -7.6 °C 30.14 in /  1020.5 hPa WNW 5.3 mph /  8.5 km/h 9.2 mph /  14.8 km/h 64 % 0.00 in /  0 mm
18:54 29.0 °F /  -1.7 °C 18.3 °F /  -7.6 °C 30.15 in /  1020.9 hPa WNW 5.4 mph /  8.7 km/h 9.2 mph /  14.8 km/h 64 % 0.00 in /  0 mm
18:59 29.0 °F /  -1.7 °C 18.7 °F /  -7.4 °C 30.15 in /  1020.9 hPa NW 5.4 mph /  8.7 km/h 9.2 mph /  14.8 km/h 65 % 0.00 in /  0 mm
19:04 29.0 °F /  -1.7 °C 18.3 °F /  -7.6 °C 30.15 in /  1020.9 hPa WNW 0.7 mph /  1.1 km/h 3.5 mph /  5.6 km/h 64 % 0.00 in /  0 mm
19:09 29.1 °F /  -1.6 °C 18.4 °F /  -7.6 °C 30.15 in /  1020.9 hPa NNW 2.5 mph /  4 km/h 3.5 mph /  5.6 km/h 64 % 0.00 in /  0 mm
19:14 29.1 °F /  -1.6 °C 18.4 °F /  -7.6 °C 30.15 in /  1020.9 hPa WNW 2.1 mph /  3.4 km/h 4.6 mph /  7.4 km/h 64 % 0.00 in /  0 mm
19:19 29.1 °F /  -1.6 °C 18.4 °F /  -7.6 °C 30.16 in /  1021.2 hPa NW 4.0 mph /  6.4 km/h 6.9 mph /  11.1 km/h 64 % 0.00 in /  0 mm
19:24 29.1 °F /  -1.6 °C 18.4 °F /  -7.6 °C 30.16 in /  1021.2 hPa WNW 4.3 mph /  6.9 km/h 6.9 mph /  11.1 km/h 64 % 0.00 in /  0 mm
19:29 29.1 °F /  -1.6 °C 18.4 °F /  -7.6 °C 30.16 in /  1021.2 hPa WNW 4.3 mph /  6.9 km/h 11.5 mph /  18.5 km/h 64 % 0.00 in /  0 mm
19:34 29.1 °F /  -1.6 °C 18.4 °F /  -7.6 °C 30.16 in /  1021.2 hPa NW 1.2 mph /  1.9 km/h 3.5 mph /  5.6 km/h 64 % 0.00 in /  0 mm
19:39 29.0 °F /  -1.7 °C 18.0 °F /  -7.8 °C 30.16 in /  1021.2 hPa WNW 4.5 mph /  7.2 km/h 4.6 mph /  7.4 km/h 63 % 0.00 in /  0 mm
19:44 29.0 °F /  -1.7 °C 18.3 °F /  -7.6 °C 30.17 in /  1021.6 hPa NW 4.9 mph /  7.9 km/h 11.5 mph /  18.5 km/h 64 % 0.00 in /  0 mm
19:49 29.0 °F /  -1.7 °C 18.0 °F /  -7.8 °C 30.16 in /  1021.2 hPa WNW 4.0 mph /  6.4 km/h 6.9 mph /  11.1 km/h 63 % 0.00 in /  0 mm
19:55 29.0 °F /  -1.7 °C 18.0 °F /  -7.8 °C 30.17 in /  1021.6 hPa NW 1.8 mph /  2.9 km/h 4.6 mph /  7.4 km/h 63 % 0.00 in /  0 mm
20:00 28.9 °F /  -1.7 °C 17.5 °F /  -8.1 °C 30.17 in /  1021.6 hPa West 3.6 mph /  5.8 km/h 7.0 mph /  11.3 km/h 62 % 0.00 in /  0 mm
20:05 28.9 °F /  -1.7 °C 17.9 °F /  -7.8 °C 30.17 in /  1021.6 hPa WNW 6.2 mph /  10 km/h 11.5 mph /  18.5 km/h 63 % 0.00 in /  0 mm
20:10 28.9 °F /  -1.7 °C 17.5 °F /  -8.1 °C 30.18 in /  1021.9 hPa WNW 2.4 mph /  3.9 km/h 9.2 mph /  14.8 km/h 62 % 0.00 in /  0 mm
20:15 28.9 °F /  -1.7 °C 17.5 °F /  -8.1 °C 30.18 in /  1021.9 hPa West 3.6 mph /  5.8 km/h 9.2 mph /  14.8 km/h 62 % 0.00 in /  0 mm
20:20 28.8 °F /  -1.8 °C 17.4 °F /  -8.1 °C 30.18 in /  1021.9 hPa WNW 4.6 mph /  7.4 km/h 7.0 mph /  11.3 km/h 62 % 0.00 in /  0 mm
20:25 28.8 °F /  -1.8 °C 17.8 °F /  -7.9 °C 30.18 in /  1021.9 hPa WNW 4.0 mph /  6.4 km/h 10.0 mph /  16.1 km/h 63 % 0.00 in /  0 mm
20:30 28.7 °F /  -1.8 °C 17.7 °F /  -7.9 °C 30.18 in /  1021.9 hPa West 3.5 mph /  5.6 km/h 8.1 mph /  13 km/h 63 % 0.00 in /  0 mm
20:35 28.7 °F /  -1.8 °C 17.7 °F /  -7.9 °C 30.18 in /  1021.9 hPa WNW 3.9 mph /  6.3 km/h 5.8 mph /  9.3 km/h 63 % 0.00 in /  0 mm
20:40 28.6 °F /  -1.9 °C 17.6 °F /  -8 °C 30.17 in /  1021.6 hPa WNW 3.4 mph /  5.5 km/h 5.8 mph /  9.3 km/h 63 % 0.00 in /  0 mm
20:45 28.5 °F /  -1.9 °C 17.9 °F /  -7.8 °C 30.18 in /  1021.9 hPa WNW 1.8 mph /  2.9 km/h 3.5 mph /  5.6 km/h 64 % 0.00 in /  0 mm
20:50 28.4 °F /  -2 °C 17.8 °F /  -7.9 °C 30.18 in /  1021.9 hPa WNW 1.0 mph /  1.6 km/h 3.5 mph /  5.6 km/h 64 % 0.00 in /  0 mm
20:55 28.3 °F /  -2.1 °C 18.0 °F /  -7.8 °C 30.18 in /  1021.9 hPa WNW 2.8 mph /  4.5 km/h 4.6 mph /  7.4 km/h 65 % 0.00 in /  0 mm
21:00 28.2 °F /  -2.1 °C 17.9 °F /  -7.8 °C 30.18 in /  1021.9 hPa Calm   2.3 mph /  3.7 km/h 65 % 0.00 in /  0 mm
21:05 28.1 °F /  -2.2 °C 18.2 °F /  -7.7 °C 30.18 in /  1021.9 hPa Calm   1.2 mph /  1.9 km/h 66 % 0.00 in /  0 mm
21:10 28.0 °F /  -2.2 °C 18.1 °F /  -7.7 °C 30.18 in /  1021.9 hPa WNW 2.4 mph /  3.9 km/h 5.8 mph /  9.3 km/h 66 % 0.00 in /  0 mm
21:15 27.9 °F /  -2.3 °C 18.0 °F /  -7.8 °C 30.18 in /  1021.9 hPa WNW 2.0 mph /  3.2 km/h 3.5 mph /  5.6 km/h 66 % 0.00 in /  0 mm
21:20 27.8 °F /  -2.3 °C 18.3 °F /  -7.6 °C 30.18 in /  1021.9 hPa Calm   4.0 mph /  6.4 km/h 67 % 0.00 in /  0 mm
21:25 27.7 °F /  -2.4 °C 18.2 °F /  -7.7 °C 30.18 in /  1021.9 hPa West 1.0 mph /  1.6 km/h 5.0 mph /  8 km/h 67 % 0.00 in /  0 mm
21:30 27.6 °F /  -2.4 °C 18.1 °F /  -7.7 °C 30.18 in /  1021.9 hPa West 1.0 mph /  1.6 km/h 5.0 mph /  8 km/h 67 % 0.00 in /  0 mm
21:35 27.6 °F /  -2.4 °C 18.1 °F /  -7.7 °C 30.18 in /  1021.9 hPa West 1.0 mph /  1.6 km/h 5.0 mph /  8 km/h 67 % 0.00 in /  0 mm
21:41 27.5 °F /  -2.5 °C 18.0 °F /  -7.8 °C 30.19 in /  1022.2 hPa WNW 1.0 mph /  1.6 km/h 5.0 mph /  8 km/h 67 % 0.00 in /  0 mm
21:45 27.5 °F /  -2.5 °C 18.0 °F /  -7.8 °C 30.19 in /  1022.2 hPa West 1.0 mph /  1.6 km/h 3.0 mph /  4.8 km/h 67 % 0.00 in /  0 mm
21:50 27.5 °F /  -2.5 °C 17.9 °F /  -7.8 °C 30.19 in /  1022.2 hPa WNW 1.0 mph /  1.6 km/h 3.0 mph /  4.8 km/h 67 % 0.00 in /  0 mm
21:55 27.4 °F /  -2.6 °C 18.2 °F /  -7.7 °C 30.19 in /  1022.2 hPa Calm     68 % 0.00 in /  0 mm
22:01 27.4 °F /  -2.6 °C 18.2 °F /  -7.7 °C 30.19 in /  1022.2 hPa Calm   1.2 mph /  1.9 km/h 68 % 0.00 in /  0 mm
22:05 27.3 °F /  -2.6 °C 18.1 °F /  -7.7 °C 30.19 in /  1022.2 hPa Calm   2.0 mph /  3.2 km/h 68 % 0.00 in /  0 mm
22:10 27.2 °F /  -2.7 °C 18.0 °F /  -7.8 °C 30.20 in /  1022.6 hPa Calm     68 % 0.00 in /  0 mm
22:15 27.1 °F /  -2.7 °C 18.3 °F /  -7.6 °C 30.19 in /  1022.2 hPa Calm   1.0 mph /  1.6 km/h 69 % 0.00 in /  0 mm
22:20 27.0 °F /  -2.8 °C 18.2 °F /  -7.7 °C 30.20 in /  1022.6 hPa Calm   1.0 mph /  1.6 km/h 69 % 0.00 in /  0 mm
22:25 26.9 °F /  -2.8 °C 18.1 °F /  -7.7 °C 30.20 in /  1022.6 hPa Calm     69 % 0.00 in /  0 mm
22:30 26.7 °F /  -2.9 °C 18.2 °F /  -7.7 °C 30.20 in /  1022.6 hPa Calm     70 % 0.00 in /  0 mm
22:35 26.6 °F /  -3 °C 18.1 °F /  -7.7 °C 30.20 in /  1022.6 hPa Calm     70 % 0.00 in /  0 mm
22:40 26.4 °F /  -3.1 °C 18.0 °F /  -7.8 °C 30.21 in /  1022.9 hPa Calm     70 % 0.00 in /  0 mm
22:45 26.2 °F /  -3.2 °C 17.8 °F /  -7.9 °C 30.20 in /  1022.6 hPa Calm     70 % 0.00 in /  0 mm
22:50 26.1 °F /  -3.3 °C 18.0 °F /  -7.8 °C 30.20 in /  1022.6 hPa Calm     71 % 0.00 in /  0 mm
22:55 26.0 °F /  -3.3 °C 17.8 °F /  -7.9 °C 30.21 in /  1022.9 hPa Calm   1.0 mph /  1.6 km/h 71 % 0.00 in /  0 mm
23:01 25.8 °F /  -3.4 °C 17.7 °F /  -7.9 °C 30.21 in /  1022.9 hPa Calm     71 % 0.00 in /  0 mm
23:06 25.6 °F /  -3.6 °C 17.8 °F /  -7.9 °C 30.21 in /  1022.9 hPa Calm   1.2 mph /  1.9 km/h 72 % 0.00 in /  0 mm
23:11 25.4 °F /  -3.7 °C 17.6 °F /  -8 °C 30.21 in /  1022.9 hPa Calm   1.2 mph /  1.9 km/h 72 % 0.00 in /  0 mm
23:16 25.3 °F /  -3.7 °C 17.5 °F /  -8.1 °C 30.21 in /  1022.9 hPa Calm     72 % 0.00 in /  0 mm
23:21 25.2 °F /  -3.8 °C 17.8 °F /  -7.9 °C 30.22 in /  1023.2 hPa West 0.6 mph /  1 km/h 2.3 mph /  3.7 km/h 73 % 0.00 in /  0 mm
23:26 25.0 °F /  -3.9 °C 17.6 °F /  -8 °C 30.21 in /  1022.9 hPa West 0.1 mph /  0.2 km/h 1.2 mph /  1.9 km/h 73 % 0.00 in /  0 mm
23:31 24.9 °F /  -3.9 °C 17.5 °F /  -8.1 °C 30.21 in /  1022.9 hPa Calm     73 % 0.00 in /  0 mm
23:36 24.8 °F /  -4 °C 17.4 °F /  -8.1 °C 30.21 in /  1022.9 hPa West 0.1 mph /  0.2 km/h 1.2 mph /  1.9 km/h 73 % 0.00 in /  0 mm
23:41 24.7 °F /  -4.1 °C 17.6 °F /  -8 °C 30.21 in /  1022.9 hPa Calm     74 % 0.00 in /  0 mm
23:46 24.7 °F /  -4.1 °C 17.6 °F /  -8 °C 30.20 in /  1022.6 hPa Calm     74 % 0.00 in /  0 mm
23:51 24.6 °F /  -4.1 °C 17.5 °F /  -8.1 °C 30.20 in /  1022.6 hPa West 0.4 mph /  0.6 km/h 1.2 mph /  1.9 km/h 74 % 0.00 in /  0 mm
23:56 24.5 °F /  -4.2 °C 17.4 °F /  -8.1 °C 30.19 in /  1022.2 hPa Calm   2.3 mph /  3.7 km/h 74 % 0.00 in /  0 mm
Crab Meadow Weather
Compliments of Weather Underground - 3 mb

Script developed by  Jim McMurry - jmcmurry@mwt.net Adapted for the template by  Wim van der Kuil - Leuven-Template.eu

Recycling: To produce each week's Sunday newspapers, 500,000 trees must be cut down.